Time;durP1;ratioP1;P1;durP2;ratioP2;P2;SDS_P1;SDS_P2;PMS_P1;PMS_P2;Temp;Humidity;BMP_temperature;BMP_pressure;BME280_temperature;BME280_humidity;BME280_pressure;Samples;Min_cycle;Max_cycle;Signal;HPM_P1;HPM_P2
2022/06/23 00:00:33;;;;;;;7.55;4.35;;;17.80;99.90;;;;;;6188135;28;20273;-67
2022/06/23 00:03:39;;;;;;;8.93;4.47;;;17.70;99.90;;;;;;6184064;28;20262;-67
2022/06/23 00:06:48;;;;;;;8.57;4.57;;;17.60;99.90;;;;;;6164073;28;20294;-68
2022/06/23 00:09:55;;;;;;;11.73;4.68;;;17.60;99.90;;;;;;6163870;29;20274;-68
2022/06/23 00:13:03;;;;;;;11.88;5.35;;;17.50;99.90;;;;;;6164219;29;20549;-68
2022/06/23 00:16:23;;;;;;;11.48;4.70;;;17.50;99.90;;;;;;6164284;29;20274;-67
2022/06/23 00:19:29;;;;;;;12.88;4.97;;;17.40;99.90;;;;;;6163875;28;20444;-68
2022/06/23 00:22:35;;;;;;;10.25;4.90;;;17.40;99.90;;;;;;6164141;29;20278;-68
2022/06/23 00:25:46;;;;;;;14.55;4.53;;;17.40;99.90;;;;;;6164138;29;20274;-68
2022/06/23 00:28:57;;;;;;;13.90;4.85;;;17.40;99.90;;;;;;6163995;29;20274;-68
2022/06/23 00:32:05;;;;;;;11.77;5.00;;;17.40;99.90;;;;;;6164095;29;20270;-68
2022/06/23 00:35:17;;;;;;;6.32;4.30;;;17.40;99.90;;;;;;6163997;29;20278;-68
2022/06/23 00:38:28;;;;;;;5.72;4.13;;;17.50;99.90;;;;;;6163904;29;20290;-68
2022/06/23 00:41:37;;;;;;;4.65;4.18;;;17.50;99.90;;;;;;6164021;29;20275;-67
2022/06/23 00:44:49;;;;;;;3.92;3.65;;;17.50;99.90;;;;;;6163960;28;20274;-67
2022/06/23 00:48:08;;;;;;;7.63;3.90;;;17.50;99.90;;;;;;6163482;29;20565;-67
2022/06/23 00:51:20;;;;;;;6.78;4.40;;;17.50;99.90;;;;;;6164661;28;20295;-68
2022/06/23 00:54:30;;;;;;;18.08;4.63;;;17.40;99.90;;;;;;6168044;28;20286;-68
2022/06/23 00:57:39;;;;;;;11.48;5.05;;;17.40;99.90;;;;;;6168031;29;20286;-68
2022/06/23 01:00:46;;;;;;;10.02;4.00;;;17.20;99.90;;;;;;6168048;29;20297;-68
2022/06/23 01:04:00;;;;;;;6.25;4.20;;;17.30;99.90;;;;;;6167846;29;20266;-68
2022/06/23 01:07:18;;;;;;;7.68;3.70;;;17.20;99.90;;;;;;6185761;28;20317;-68
2022/06/23 01:10:29;;;;;;;11.88;4.10;;;17.20;99.90;;;;;;6191742;28;20281;-68
2022/06/23 01:13:39;;;;;;;7.57;3.70;;;17.20;99.90;;;;;;6191602;28;20359;-68
2022/06/23 01:16:49;;;;;;;7.85;3.58;;;17.20;99.90;;;;;;6191586;28;20290;-67
2022/06/23 01:20:12;;;;;;;9.07;3.72;;;17.20;99.90;;;;;;6191163;28;20289;-67
2022/06/23 01:23:44;;;;;;;7.43;3.47;;;17.20;99.90;;;;;;6191425;28;20270;-67
2022/06/23 01:27:01;;;;;;;4.53;3.55;;;17.20;99.90;;;;;;6191278;28;20269;-67
2022/06/23 01:30:11;;;;;;;3.67;3.47;;;17.10;99.90;;;;;;6191278;28;20279;-67
2022/06/23 01:33:22;;;;;;;3.97;3.38;;;17.10;99.90;;;;;;6190779;28;20278;-67
2022/06/23 01:36:33;;;;;;;10.55;3.25;;;17.10;99.90;;;;;;6190896;28;20275;-67
2022/06/23 01:39:46;;;;;;;3.45;3.15;;;17.00;99.90;;;;;;6191117;28;20294;-68
2022/06/23 01:42:56;;;;;;;13.60;3.38;;;16.90;99.90;;;;;;6190977;28;20278;-67
2022/06/23 01:46:10;;;;;;;7.18;3.17;;;16.90;99.90;;;;;;6190370;28;20278;-68
2022/06/23 01:49:21;;;;;;;5.55;3.22;;;16.90;99.90;;;;;;6190840;28;20436;-67
2022/06/23 01:52:26;;;;;;;11.32;3.85;;;16.80;99.90;;;;;;6190394;28;20275;-67
2022/06/23 01:56:05;;;;;;;5.70;3.60;;;16.70;99.90;;;;;;6190275;28;20435;-68
2022/06/23 01:59:43;;;;;;;8.82;3.50;;;16.70;99.90;;;;;;6189553;28;20297;-68
2022/06/23 02:02:56;;;;;;;5.03;3.42;;;16.70;99.90;;;;;;6190216;28;20278;-68
2022/06/23 02:06:12;;;;;;;8.95;3.30;;;16.60;99.90;;;;;;6166962;28;20429;-68
2022/06/23 02:09:25;;;;;;;3.63;3.35;;;16.60;99.90;;;;;;6166580;29;20275;-68
2022/06/23 02:12:35;;;;;;;5.47;3.17;;;16.60;99.90;;;;;;6166690;28;20290;-68
2022/06/23 02:15:52;;;;;;;5.25;3.20;;;16.60;99.90;;;;;;6166021;29;20275;-68
2022/06/23 02:19:04;;;;;;;3.13;2.83;;;16.70;99.90;;;;;;6166258;29;20295;-68
2022/06/23 02:22:15;;;;;;;2.90;2.80;;;16.60;99.90;;;;;;6165927;28;20456;-68
2022/06/23 02:25:27;;;;;;;2.67;2.55;;;16.60;99.90;;;;;;6166287;28;20270;-68
2022/06/23 02:28:38;;;;;;;3.15;2.75;;;16.50;99.90;;;;;;6166263;28;20279;-68
2022/06/23 02:31:50;;;;;;;4.25;2.90;;;16.50;99.90;;;;;;6165620;29;20279;-68
2022/06/23 02:35:08;;;;;;;3.10;2.90;;;16.50;99.90;;;;;;6165551;29;20274;-68
2022/06/23 02:38:21;;;;;;;4.95;2.55;;;16.60;99.90;;;;;;6165611;28;20454;-68
2022/06/23 02:41:30;;;;;;;4.78;2.90;;;16.50;99.90;;;;;;6165684;29;20387;-68
2022/06/23 02:45:12;;;;;;;2.97;2.80;;;16.60;99.90;;;;;;6165960;28;20274;-67
2022/06/23 02:48:35;;;;;;;2.70;2.60;;;16.60;99.90;;;;;;6138090;29;20279;-67
2022/06/23 02:52:43;;;;;;;3.70;2.45;;;16.50;99.90;;;;;;6165516;29;20278;-67
2022/06/23 02:56:24;;;;;;;3.42;2.80;;;16.60;99.90;;;;;;6113777;29;20279;-67
2022/06/23 02:59:43;;;;;;;2.85;2.65;;;16.60;99.90;;;;;;6165437;28;20609;-67
2022/06/23 03:03:01;;;;;;;2.40;2.30;;;16.60;99.90;;;;;;6165342;29;20279;-67
2022/06/23 03:06:19;;;;;;;4.57;2.45;;;16.60;99.90;;;;;;6175007;28;20302;-67
2022/06/23 03:09:33;;;;;;;3.00;2.40;;;16.60;99.90;;;;;;6189000;28;20279;-67
2022/06/23 03:12:42;;;;;;;4.53;2.25;;;16.50;99.90;;;;;;6188927;28;20270;-67
2022/06/23 03:15:53;;;;;;;2.28;2.28;;;16.60;99.90;;;;;;6187998;28;20281;-67
2022/06/23 03:19:03;;;;;;;2.22;2.00;;;16.60;99.90;;;;;;6188877;28;20274;-67
2022/06/23 03:22:18;;;;;;;2.45;2.35;;;16.60;99.90;;;;;;6188660;28;20483;-67
2022/06/23 03:25:28;;;;;;;2.95;2.70;;;16.70;99.90;;;;;;6188767;28;20274;-67
2022/06/23 03:28:41;;;;;;;2.33;2.33;;;16.70;99.90;;;;;;6188693;28;20274;-68
2022/06/23 03:31:53;;;;;;;2.60;2.40;;;16.70;99.90;;;;;;6188297;28;20273;-67
2022/06/23 03:35:06;;;;;;;2.28;2.15;;;16.70;99.90;;;;;;6188547;28;20269;-67
2022/06/23 03:38:21;;;;;;;3.45;2.30;;;16.80;99.90;;;;;;6188414;28;20270;-67
2022/06/23 03:41:38;;;;;;;2.50;2.30;;;16.80;99.90;;;;;;6187990;28;20301;-67
2022/06/23 03:44:53;;;;;;;3.78;2.40;;;16.70;99.90;;;;;;6188400;28;20278;-67
2022/06/23 03:48:04;;;;;;;2.42;2.33;;;16.70;99.90;;;;;;6188355;28;20278;-67
2022/06/23 03:51:16;;;;;;;4.65;2.45;;;16.80;99.90;;;;;;6187936;28;20273;-67
2022/06/23 03:54:24;;;;;;;2.45;2.30;;;16.90;99.90;;;;;;6187623;28;20270;-67
2022/06/23 03:57:36;;;;;;;1.75;1.75;;;17.00;99.90;;;;;;6188144;28;20269;-67
2022/06/23 04:00:45;;;;;;;7.63;2.72;;;16.90;99.90;;;;;;6188010;28;20290;-67
2022/06/23 04:03:57;;;;;;;2.28;2.00;;;17.00;99.90;;;;;;6182171;28;20270;-67
2022/06/23 04:07:24;;;;;;;2.85;1.65;;;17.00;99.90;;;;;;6164323;29;20302;-67
2022/06/23 04:10:32;;;;;;;4.50;2.13;;;17.00;99.90;;;;;;6164227;29;20274;-67
2022/06/23 04:13:46;;;;;;;6.03;1.90;;;17.00;99.90;;;;;;6164247;29;20554;-67
2022/06/23 04:16:57;;;;;;;1.90;1.80;;;17.00;99.90;;;;;;6164336;28;20450;-67
2022/06/23 04:20:10;;;;;;;2.05;1.95;;;17.10;99.90;;;;;;6163993;29;20275;-67
2022/06/23 04:23:18;;;;;;;3.28;2.00;;;17.10;99.90;;;;;;6163756;29;20274;-67
2022/06/23 04:26:29;;;;;;;4.55;2.05;;;17.10;99.90;;;;;;6165401;28;20274;-67
2022/06/23 04:29:40;;;;;;;6.50;1.90;;;17.10;99.90;;;;;;6168372;29;20534;-67
2022/06/23 04:32:50;;;;;;;2.13;2.00;;;17.10;99.90;;;;;;6168743;29;20275;-67
2022/06/23 04:35:59;;;;;;;2.50;2.30;;;17.10;99.90;;;;;;6168416;28;20361;-67
2022/06/23 04:39:08;;;;;;;2.25;2.10;;;17.00;99.90;;;;;;6168619;29;20271;-67
2022/06/23 04:42:18;;;;;;;5.38;2.35;;;17.10;99.90;;;;;;6168650;28;20290;-67
2022/06/23 04:45:35;;;;;;;3.38;2.35;;;17.10;99.90;;;;;;6168506;29;20274;-67
2022/06/23 04:48:54;;;;;;;2.75;2.55;;;17.20;99.90;;;;;;6168107;29;20275;-67
2022/06/23 04:52:03;;;;;;;1.90;1.90;;;17.20;99.90;;;;;;6167941;29;20278;-68
2022/06/23 04:55:16;;;;;;;3.38;2.13;;;17.20;99.90;;;;;;6167846;29;20270;-67
2022/06/23 04:58:23;;;;;;;2.20;2.00;;;17.20;99.90;;;;;;6168227;29;20340;-67
2022/06/23 05:01:42;;;;;;;3.17;1.90;;;17.30;99.90;;;;;;6168253;28;20292;-66
2022/06/23 05:04:56;;;;;;;4.00;2.00;;;17.30;99.90;;;;;;6168181;28;20276;-67
2022/06/23 05:08:04;;;;;;;1.85;1.58;;;17.40;99.90;;;;;;6190918;28;20301;-67
2022/06/23 05:11:15;;;;;;;2.22;1.90;;;17.30;99.90;;;;;;6191701;28;20277;-66
2022/06/23 05:14:30;;;;;;;5.43;2.00;;;17.40;99.90;;;;;;6191538;28;20274;-67
2022/06/23 05:17:50;;;;;;;4.88;2.35;;;17.40;99.90;;;;;;6191611;28;20509;-67
2022/06/23 05:20:59;;;;;;;5.07;2.58;;;17.50;99.90;;;;;;6191033;28;20283;-66
2022/06/23 05:24:09;;;;;;;3.33;1.90;;;17.60;99.90;;;;;;6191418;28;20273;-66
2022/06/23 05:27:24;;;;;;;2.03;1.92;;;17.50;99.90;;;;;;6191043;28;20270;-66
2022/06/23 05:30:33;;;;;;;1.92;1.80;;;17.60;99.90;;;;;;6191315;28;20274;-67
2022/06/23 05:33:46;;;;;;;2.38;2.15;;;17.60;99.90;;;;;;6191139;28;20548;-66
2022/06/23 05:37:06;;;;;;;2.38;1.90;;;17.60;99.90;;;;;;6190976;28;20270;-67
2022/06/23 05:40:21;;;;;;;3.90;2.28;;;17.60;99.90;;;;;;6190870;28;20274;-67
2022/06/23 05:43:27;;;;;;;3.90;2.00;;;17.70;99.90;;;;;;6191021;28;20294;-66
2022/06/23 05:46:33;;;;;;;4.78;2.15;;;17.70;99.90;;;;;;6190554;28;20278;-66
2022/06/23 05:49:44;;;;;;;2.53;2.30;;;17.80;99.90;;;;;;6190760;28;20270;-67
2022/06/23 05:52:56;;;;;;;8.55;2.40;;;17.90;99.90;;;;;;6190354;28;20548;-66
2022/06/23 05:56:04;;;;;;;10.95;2.83;;;18.00;99.90;;;;;;6190101;28;20412;-66
2022/06/23 05:59:17;;;;;;;10.43;1.95;;;17.90;99.90;;;;;;6190607;28;20274;-66
2022/06/23 06:02:27;;;;;;;2.30;2.20;;;18.00;99.90;;;;;;6190587;28;20293;-66
2022/06/23 06:05:37;;;;;;;3.60;2.03;;;18.00;99.90;;;;;;6171138;28;20295;-66
2022/06/23 06:12:16;;;;;;;3.08;2.00;;;18.00;99.90;;;;;;6166530;28;20277;-66
2022/06/23 06:15:26;;;;;;;9.15;2.28;;;18.10;99.90;;;;;;6166301;29;20290;-66
2022/06/23 06:18:34;;;;;;;3.58;2.13;;;18.00;99.90;;;;;;6166385;29;20270;-66
2022/06/23 06:21:41;;;;;;;5.47;2.17;;;17.90;99.90;;;;;;6166225;29;20566;-67
2022/06/23 06:24:51;;;;;;;3.90;2.35;;;17.90;99.90;;;;;;6166167;28;20274;-67
2022/06/23 06:28:01;;;;;;;3.97;2.28;;;18.00;99.90;;;;;;6165781;28;20279;-67
2022/06/23 06:31:13;;;;;;;2.83;2.22;;;18.10;99.90;;;;;;6166102;29;20270;-67
2022/06/23 06:34:23;;;;;;;4.65;2.47;;;18.10;99.90;;;;;;6165968;29;20279;-68
2022/06/23 06:37:35;;;;;;;4.32;2.20;;;18.20;99.90;;;;;;6165494;29;20371;-68
2022/06/23 06:40:44;;;;;;;4.45;2.05;;;18.20;99.90;;;;;;6166075;29;20271;-67
2022/06/23 06:43:49;;;;;;;4.07;2.22;;;18.30;99.90;;;;;;6165364;29;20294;-67
2022/06/23 06:46:55;;;;;;;6.28;2.70;;;18.40;99.90;;;;;;6165986;28;20270;-68
2022/06/23 06:50:06;;;;;;;1.95;1.85;;;18.30;99.90;;;;;;6165032;28;20388;-68
2022/06/23 06:53:21;;;;;;;2.97;1.90;;;18.50;99.90;;;;;;6165174;29;20278;-68
2022/06/23 06:56:40;;;;;;;2.40;2.20;;;18.50;99.90;;;;;;6165446;29;20270;-68
2022/06/23 06:59:51;;;;;;;4.00;2.13;;;18.60;99.90;;;;;;6165136;29;20275;-68
2022/06/23 07:02:59;;;;;;;3.03;2.17;;;18.60;99.90;;;;;;6165288;29;20293;-68
2022/06/23 07:06:10;;;;;;;2.20;2.03;;;18.70;99.90;;;;;;6173162;28;20561;-68
2022/06/23 07:09:27;;;;;;;7.65;2.22;;;18.70;99.90;;;;;;6189225;28;20265;-68
2022/06/23 07:12:39;;;;;;;2.03;1.80;;;18.80;99.90;;;;;;6188975;28;20273;-68
2022/06/23 07:15:49;;;;;;;4.53;2.10;;;18.90;99.90;;;;;;6188644;28;20270;-68
2022/06/23 07:19:00;;;;;;;2.20;2.05;;;18.90;99.90;;;;;;6188511;28;20274;-68
2022/06/23 07:22:14;;;;;;;4.63;2.30;;;19.00;99.90;;;;;;6188437;28;20273;-68
2022/06/23 07:25:25;;;;;;;3.08;2.03;;;19.10;99.90;;;;;;6188657;28;20297;-68
2022/06/23 07:28:34;;;;;;;3.97;2.08;;;19.20;99.90;;;;;;6188685;28;20430;-67
2022/06/23 07:31:50;;;;;;;2.33;2.03;;;19.20;99.90;;;;;;6188493;28;20274;-67
2022/06/23 07:35:07;;;;;;;2.28;2.08;;;19.20;99.90;;;;;;6188616;28;20278;-69
2022/06/23 07:38:20;;;;;;;4.28;2.10;;;19.20;99.90;;;;;;6188518;28;20270;-69
2022/06/23 07:41:32;;;;;;;4.35;1.85;;;19.10;99.90;;;;;;6188314;28;20270;-67
2022/06/23 07:44:41;;;;;;;4.00;1.63;;;19.10;99.90;;;;;;6188199;28;20576;-67
2022/06/23 07:47:47;;;;;;;2.03;1.92;;;19.10;99.90;;;;;;6187968;28;20273;-67
2022/06/23 07:50:52;;;;;;;3.60;2.22;;;19.00;99.90;;;;;;6188301;28;20278;-68
2022/06/23 07:53:58;;;;;;;4.38;1.80;;;19.10;99.90;;;;;;6188430;28;20541;-68
2022/06/23 07:57:06;;;;;;;2.60;2.00;;;19.30;99.90;;;;;;6187709;28;20274;-68
2022/06/23 08:00:14;;;;;;;7.55;2.03;;;19.30;99.90;;;;;;6187625;28;20452;-68
2022/06/23 08:03:25;;;;;;;3.92;2.08;;;19.40;99.90;;;;;;6186100;28;20301;-67
2022/06/23 08:06:31;;;;;;;2.83;1.40;;;19.40;99.90;;;;;;6164069;28;20474;-67
2022/06/23 08:09:42;;;;;;;3.10;1.73;;;19.50;99.90;;;;;;6163770;29;20279;-68
2022/06/23 08:12:55;;;;;;;2.97;1.75;;;19.60;99.90;;;;;;6164109;29;20278;-68
2022/06/23 08:19:35;;;;;;;2.45;1.77;;;19.80;99.90;;;;;;6163956;29;20582;-67
2022/06/23 08:22:42;;;;;;;3.35;1.80;;;20.00;99.90;;;;;;6164276;28;20271;-68
2022/06/23 08:25:48;;;;;;;4.32;1.92;;;20.10;99.90;;;;;;6164131;28;20599;-67
2022/06/23 08:29:00;;;;;;;4.32;1.85;;;20.10;99.90;;;;;;6164062;29;20357;-67
2022/06/23 08:32:06;;;;;;;1.77;1.70;;;20.20;99.90;;;;;;6163345;29;20270;-67
2022/06/23 08:35:18;;;;;;;1.55;1.55;;;20.30;99.90;;;;;;6163790;29;20537;-66
2022/06/23 08:38:28;;;;;;;5.15;1.40;;;20.20;99.90;;;;;;6163552;29;20275;-67
2022/06/23 08:41:40;;;;;;;3.60;1.50;;;20.20;99.90;;;;;;6163789;29;20266;-68
2022/06/23 08:45:20;;;;;;;4.85;1.70;;;20.20;99.90;;;;;;6163815;29;20294;-67
2022/06/23 08:48:31;;;;;;;6.35;1.98;;;20.20;99.90;;;;;;6163519;29;20293;-67
2022/06/23 08:51:45;;;;;;;2.15;1.67;;;20.30;99.90;;;;;;6162535;29;20274;-67
2022/06/23 08:55:03;;;;;;;2.10;2.00;;;20.40;99.90;;;;;;6163623;29;20274;-67
2022/06/23 08:58:17;;;;;;;2.30;1.98;;;20.50;99.90;;;;;;6163235;29;20453;-68
2022/06/23 09:01:30;;;;;;;1.70;1.60;;;20.60;99.90;;;;;;6163716;29;20275;-67
2022/06/23 09:04:47;;;;;;;1.45;1.45;;;20.60;99.70;;;;;;6163318;29;20454;-67
2022/06/23 09:08:03;;;;;;;2.63;1.60;;;20.60;99.90;;;;;;6185257;28;20306;-67
2022/06/23 09:11:21;;;;;;;1.60;1.60;;;20.70;99.50;;;;;;6187200;28;20274;-67
2022/06/23 09:14:54;;;;;;;4.22;1.67;;;20.80;99.90;;;;;;6189692;28;20301;-67
2022/06/23 09:18:49;;;;;;;2.25;1.88;;;20.80;99.20;;;;;;6191219;28;20270;-67
2022/06/23 09:22:21;;;;;;;1.60;1.60;;;20.90;99.10;;;;;;6190930;28;20273;-67
2022/06/23 09:25:37;;;;;;;1.90;1.80;;;20.90;99.40;;;;;;6191204;28;20293;-67
2022/06/23 09:28:51;;;;;;;1.92;1.75;;;21.00;99.60;;;;;;6190916;28;20270;-66
2022/06/23 09:32:00;;;;;;;2.03;1.77;;;21.00;99.20;;;;;;6190717;28;20278;-67
2022/06/23 09:35:33;;;;;;;2.13;2.10;;;20.90;99.30;;;;;;6191014;28;20282;-67
2022/06/23 09:39:21;;;;;;;4.20;2.72;;;20.90;99.60;;;;;;6190346;28;20273;-67
2022/06/23 09:43:06;;;;;;;2.25;2.03;;;21.00;99.90;;;;;;6146693;28;20278;-67
2022/06/23 09:46:43;;;;;;;3.25;2.00;;;21.10;99.30;;;;;;6190588;28;20298;-66
2022/06/23 09:50:28;;;;;;;2.35;1.75;;;21.30;99.30;;;;;;6190316;28;20274;-67
2022/06/23 09:53:48;;;;;;;2.60;2.03;;;21.30;99.60;;;;;;6190232;28;20274;-67
2022/06/23 09:57:10;;;;;;;4.07;2.22;;;21.30;99.40;;;;;;6190686;28;20277;-67
2022/06/23 10:00:17;;;;;;;5.32;1.95;;;21.40;99.30;;;;;;6190437;28;20278;-67
2022/06/23 10:03:42;;;;;;;3.15;1.95;;;21.50;98.90;;;;;;6188150;28;20273;-67
2022/06/23 10:07:11;;;;;;;4.95;1.90;;;21.50;98.90;;;;;;6166640;28;20318;-67
2022/06/23 10:10:33;;;;;;;2.75;2.10;;;21.60;99.10;;;;;;6166452;29;20430;-66
2022/06/23 10:13:57;;;;;;;3.92;1.90;;;21.70;99.40;;;;;;6166309;29;20520;-66
2022/06/23 10:17:29;;;;;;;3.65;1.95;;;21.80;98.90;;;;;;6165766;29;20274;-67
2022/06/23 10:20:48;;;;;;;1.80;1.70;;;21.90;97.80;;;;;;6165612;29;20300;-67
2022/06/23 10:24:28;;;;;;;2.10;1.70;;;21.90;98.20;;;;;;6165624;28;20274;-67
2022/06/23 10:28:12;;;;;;;2.08;1.98;;;22.00;98.40;;;;;;6154275;28;20314;-67
2022/06/23 10:31:31;;;;;;;3.08;2.17;;;22.10;98.50;;;;;;6165701;28;20290;-68
2022/06/23 10:34:45;;;;;;;3.50;1.77;;;22.20;97.70;;;;;;6165413;29;20558;-68
2022/06/23 10:38:10;;;;;;;2.13;1.70;;;22.30;97.80;;;;;;6165897;28;20456;-68
2022/06/23 10:41:31;;;;;;;2.47;2.00;;;22.30;98.00;;;;;;6166097;28;20275;-68
2022/06/23 10:44:54;;;;;;;2.97;2.10;;;22.40;97.30;;;;;;6166171;28;20294;-67
2022/06/23 10:48:31;;;;;;;2.00;1.90;;;22.50;97.60;;;;;;6165685;29;20274;-69
2022/06/23 10:52:00;;;;;;;2.08;1.98;;;22.60;97.40;;;;;;6166042;28;20274;-69
2022/06/23 10:55:31;;;;;;;2.17;2.08;;;22.70;97.30;;;;;;6165604;29;20271;-67
2022/06/23 10:59:01;;;;;;;5.75;1.88;;;22.80;97.40;;;;;;6165760;29;20274;-69
2022/06/23 11:02:42;;;;;;;2.20;2.10;;;22.80;96.60;;;;;;6164374;29;20300;-68
2022/06/23 11:06:10;;;;;;;2.70;2.40;;;22.80;96.00;;;;;;6170885;28;20588;-69
2022/06/23 11:09:57;;;;;;;1.90;1.90;;;22.90;95.90;;;;;;6187427;28;20274;-67
2022/06/23 11:13:12;;;;;;;4.97;1.70;;;23.00;95.70;;;;;;6184972;28;20493;-68
2022/06/23 11:16:29;;;;;;;2.28;2.13;;;23.10;95.20;;;;;;6188816;28;20278;-68
2022/06/23 11:19:47;;;;;;;2.65;1.77;;;23.10;95.00;;;;;;6188443;28;20278;-68
2022/06/23 11:23:01;;;;;;;1.70;1.70;;;23.20;95.20;;;;;;6188225;28;20553;-68
2022/06/23 11:26:15;;;;;;;1.98;1.75;;;23.30;94.40;;;;;;6188110;28;20615;-68
2022/06/23 11:29:45;;;;;;;3.10;2.00;;;23.40;94.50;;;;;;6188871;28;20274;-68
2022/06/23 11:33:26;;;;;;;3.58;1.70;;;23.50;94.40;;;;;;6188681;28;20273;-68
2022/06/23 11:36:50;;;;;;;3.28;2.10;;;23.50;94.10;;;;;;6172564;28;20282;-66
2022/06/23 11:40:17;;;;;;;4.15;2.10;;;23.60;93.60;;;;;;6188120;28;20274;-68
2022/06/23 11:43:25;;;;;;;2.42;2.33;;;23.70;94.40;;;;;;6188059;28;20273;-68
2022/06/23 11:46:38;;;;;;;2.05;1.92;;;23.60;95.10;;;;;;6188495;28;20293;-68
2022/06/23 11:49:55;;;;;;;2.38;2.20;;;23.70;95.10;;;;;;6188158;28;20274;-68
2022/06/23 11:53:24;;;;;;;2.50;2.30;;;23.90;94.90;;;;;;6188311;28;20270;-68
2022/06/23 11:56:45;;;;;;;9.02;3.28;;;24.00;94.50;;;;;;6187645;28;20278;-68
2022/06/23 11:59:59;;;;;;;4.90;2.70;;;24.20;94.00;;;;;;6170732;28;20278;-67
2022/06/23 12:03:38;;;;;;;5.30;3.00;;;24.20;94.10;;;;;;6185549;28;20585;-68
2022/06/23 12:07:02;;;;;;;3.65;2.78;;;24.20;94.00;;;;;;6164249;28;20302;-68
2022/06/23 12:10:17;;;;;;;6.13;2.65;;;24.20;94.10;;;;;;6164155;29;20457;-68
2022/06/23 12:13:23;;;;;;;3.63;2.22;;;24.30;94.10;;;;;;6164078;29;20274;-68
2022/06/23 12:16:29;;;;;;;3.22;2.47;;;24.30;93.30;;;;;;6163601;29;20278;-66
2022/06/23 12:19:44;;;;;;;3.22;2.38;;;24.50;93.80;;;;;;6163261;29;20273;-68
2022/06/23 12:22:56;;;;;;;4.80;2.13;;;24.50;93.30;;;;;;6164126;29;20275;-68
2022/06/23 12:26:10;;;;;;;2.30;2.20;;;24.70;93.00;;;;;;6163628;29;20278;-68
2022/06/23 12:29:20;;;;;;;3.40;2.72;;;24.80;93.40;;;;;;6163530;29;20271;-68
2022/06/23 12:32:37;;;;;;;4.32;2.70;;;24.90;93.50;;;;;;6164100;28;20274;-67
2022/06/23 12:35:47;;;;;;;4.13;2.58;;;25.00;93.30;;;;;;6163800;29;20271;-68
2022/06/23 12:38:59;;;;;;;2.72;2.55;;;24.90;93.20;;;;;;6163915;29;20287;-68
2022/06/23 12:42:10;;;;;;;3.38;2.50;;;25.00;93.20;;;;;;6163411;29;20271;-68
2022/06/23 12:45:47;;;;;;;2.53;2.28;;;25.10;92.90;;;;;;6163514;29;20274;-68
2022/06/23 12:49:23;;;;;;;2.83;2.60;;;25.20;93.20;;;;;;6167493;28;20294;-67
2022/06/23 12:52:47;;;;;;;3.25;2.50;;;25.20;93.00;;;;;;6168049;29;20274;-67
2022/06/23 12:56:08;;;;;;;2.80;2.70;;;25.30;92.50;;;;;;6167767;29;20275;-67
2022/06/23 12:59:19;;;;;;;5.47;2.65;;;25.40;93.10;;;;;;6168123;29;20283;-67
2022/06/23 13:02:30;;;;;;;3.78;2.38;;;25.40;92.80;;;;;;6168164;28;20274;-67
2022/06/23 13:05:42;;;;;;;2.72;2.42;;;25.40;92.80;;;;;;6171430;28;20294;-67
2022/06/23 13:08:59;;;;;;;4.00;2.55;;;25.50;92.00;;;;;;6191756;28;20297;-67
2022/06/23 13:12:13;;;;;;;3.75;2.28;;;25.60;91.80;;;;;;6191544;28;20520;-67
2022/06/23 13:15:31;;;;;;;2.92;2.75;;;25.80;92.80;;;;;;6174528;28;20269;-67
2022/06/23 13:18:40;;;;;;;2.90;2.70;;;25.70;91.90;;;;;;6191434;28;20273;-67
2022/06/23 13:21:46;;;;;;;2.80;2.60;;;25.80;92.90;;;;;;6191190;28;20270;-67
2022/06/23 13:24:55;;;;;;;4.43;2.58;;;25.80;92.10;;;;;;6191458;28;20273;-67
2022/06/23 13:28:05;;;;;;;7.15;2.70;;;25.90;91.70;;;;;;6191070;28;20616;-67
2022/06/23 13:31:21;;;;;;;6.00;2.58;;;26.10;91.90;;;;;;6191235;28;20270;-67
2022/06/23 13:34:29;;;;;;;2.45;2.30;;;26.10;91.50;;;;;;6191243;28;20274;-67
2022/06/23 13:37:44;;;;;;;2.70;2.13;;;26.20;91.50;;;;;;6190899;28;20354;-67
2022/06/23 13:40:55;;;;;;;4.47;2.60;;;26.30;90.90;;;;;;6190900;28;20270;-67
2022/06/23 13:44:11;;;;;;;2.63;2.40;;;26.40;90.60;;;;;;6190833;28;20278;-67
2022/06/23 13:47:20;;;;;;;5.28;3.13;;;26.40;90.50;;;;;;6190975;28;20270;-67
2022/06/23 13:50:33;;;;;;;3.20;2.92;;;26.60;90.70;;;;;;6190600;28;20273;-67
2022/06/23 13:53:42;;;;;;;2.75;2.65;;;27.20;91.20;;;;;;6190388;28;20270;-67
2022/06/23 13:56:51;;;;;;;3.35;2.10;;;28.40;87.50;;;;;;6173634;28;20297;-67
2022/06/23 14:00:04;;;;;;;2.85;2.20;;;28.40;85.30;;;;;;6189514;28;20277;-67
2022/06/23 14:03:20;;;;;;;3.58;2.40;;;27.90;84.30;;;;;;6190328;28;20428;-67
2022/06/23 14:06:35;;;;;;;5.05;2.50;;;28.80;84.20;;;;;;6166818;28;20302;-67
2022/06/23 14:09:45;;;;;;;2.67;2.50;;;29.30;82.10;;;;;;6166570;29;20294;-67
2022/06/23 14:12:56;;;;;;;3.47;2.40;;;29.40;80.50;;;;;;6166667;29;20275;-68
2022/06/23 14:16:08;;;;;;;2.30;2.30;;;29.90;76.70;;;;;;6165979;29;20597;-68
2022/06/23 14:19:16;;;;;;;4.20;2.33;;;29.30;76.60;;;;;;6165914;29;20470;-68
2022/06/23 14:22:25;;;;;;;3.85;2.50;;;28.60;77.70;;;;;;6166477;29;20271;-68
2022/06/23 14:25:37;;;;;;;2.92;2.67;;;28.10;79.90;;;;;;6166030;28;20471;-68
2022/06/23 14:28:50;;;;;;;4.03;2.25;;;27.90;81.20;;;;;;6166016;29;20290;-68
2022/06/23 14:32:04;;;;;;;2.58;2.47;;;27.80;81.50;;;;;;6165728;29;20275;-69
2022/06/23 14:35:14;;;;;;;4.65;2.30;;;27.70;82.70;;;;;;6166178;28;20278;-68
2022/06/23 14:38:26;;;;;;;5.78;2.42;;;27.60;84.10;;;;;;6165968;29;20455;-68
2022/06/23 14:41:48;;;;;;;6.93;2.35;;;27.80;82.80;;;;;;6165834;29;20275;-68
2022/06/23 14:45:13;;;;;;;3.22;2.65;;;27.60;80.90;;;;;;6165920;29;20274;-67
2022/06/23 14:48:55;;;;;;;4.50;2.53;;;28.10;83.00;;;;;;6164948;29;20294;-68
2022/06/23 14:52:05;;;;;;;4.88;2.60;;;28.70;80.30;;;;;;6157390;29;20273;-67
2022/06/23 14:55:22;;;;;;;3.80;2.20;;;29.10;77.80;;;;;;6165365;29;20274;-68
2022/06/23 14:58:38;;;;;;;2.38;2.22;;;28.60;77.10;;;;;;6165314;28;20574;-68
2022/06/23 15:01:52;;;;;;;2.97;2.78;;;28.30;78.70;;;;;;6164919;29;20271;-68
2022/06/23 15:05:07;;;;;;;2.85;2.60;;;28.00;81.80;;;;;;6164770;29;20266;-68
2022/06/23 15:08:20;;;;;;;2.47;2.28;;;27.80;82.00;;;;;;6165226;29;20271;-68
2022/06/23 15:11:33;;;;;;;5.82;2.65;;;27.90;84.40;;;;;;6164473;28;20279;-68
2022/06/23 15:14:43;;;;;;;5.93;2.20;;;27.80;83.80;;;;;;6165258;29;20274;-68
2022/06/23 15:17:57;;;;;;;2.55;2.35;;;27.70;83.20;;;;;;6164506;29;20463;-69
2022/06/23 15:23:09;;;;;;;9.13;2.70;;;28.00;80.90;;;;;;6164369;29;20274;-68
2022/06/23 15:24:45;;;;;;;3.42;2.20;;;29.10;77.90;;;;;;6164800;29;20606;-69
2022/06/23 15:27:55;;;;;;;3.05;2.35;;;30.40;74.70;;;;;;6164330;29;20275;-69
2022/06/23 15:31:08;;;;;;;2.58;2.38;;;30.10;73.10;;;;;;6164780;29;20573;-69
2022/06/23 15:34:18;;;;;;;4.47;2.92;;;29.40;75.40;;;;;;6164605;29;20554;-69
2022/06/23 15:37:41;;;;;;;4.85;2.50;;;29.30;74.30;;;;;;6164716;29;20278;-69
2022/06/23 15:40:50;;;;;;;3.72;2.58;;;29.30;75.20;;;;;;6164538;28;20214;-69
2022/06/23 15:44:08;;;;;;;3.53;2.58;;;29.40;76.20;;;;;;6164171;29;20275;-68
2022/06/23 15:47:18;;;;;;;2.60;2.50;;;29.40;73.50;;;;;;6164452;29;20558;-69
2022/06/23 15:50:27;;;;;;;4.32;2.90;;;28.80;72.90;;;;;;6164051;29;20294;-69
2022/06/23 15:53:41;;;;;;;2.53;2.42;;;28.40;74.20;;;;;;6163959;29;20279;-68
2022/06/23 15:56:55;;;;;;;5.72;2.55;;;28.10;75.70;;;;;;6164283;29;20275;-69
2022/06/23 16:00:09;;;;;;;4.28;2.45;;;27.90;76.90;;;;;;6164252;29;20273;-69
2022/06/23 16:03:24;;;;;;;5.15;2.33;;;27.70;77.20;;;;;;6163878;29;20275;-68
2022/06/23 16:06:33;;;;;;;6.70;2.70;;;27.50;78.00;;;;;;6164222;28;20307;-68
2022/06/23 16:09:54;;;;;;;4.50;2.40;;;27.50;77.60;;;;;;6163815;29;20306;-68
2022/06/23 16:13:00;;;;;;;2.55;2.35;;;27.50;77.60;;;;;;6163900;29;20271;-69
2022/06/23 16:16:09;;;;;;;2.85;2.65;;;27.50;78.40;;;;;;6164068;29;20279;-68
2022/06/23 16:19:23;;;;;;;2.97;2.60;;;27.40;79.00;;;;;;6164260;28;20274;-68
2022/06/23 16:22:44;;;;;;;3.13;2.50;;;27.20;78.30;;;;;;6165669;28;20278;-68
2022/06/23 16:25:57;;;;;;;3.08;2.88;;;27.30;78.70;;;;;;6168960;29;20450;-68
2022/06/23 16:29:08;;;;;;;3.70;3.30;;;27.30;79.80;;;;;;6168602;29;20278;-68
2022/06/23 16:32:18;;;;;;;3.60;3.40;;;27.20;80.70;;;;;;6168379;29;20291;-68
2022/06/23 16:35:30;;;;;;;3.67;2.90;;;27.00;80.10;;;;;;6168226;29;20362;-68
2022/06/23 16:38:46;;;;;;;5.82;2.80;;;27.10;79.70;;;;;;6168707;29;20270;-67
2022/06/23 16:42:07;;;;;;;5.80;2.55;;;27.00;80.60;;;;;;6168533;29;20561;-68
2022/06/23 16:45:23;;;;;;;8.88;3.08;;;26.90;81.20;;;;;;6168345;28;20275;-68
2022/06/23 16:48:36;;;;;;;6.72;2.78;;;26.90;81.70;;;;;;6168738;28;20275;-68
2022/06/23 16:51:50;;;;;;;3.22;2.30;;;26.90;80.00;;;;;;6168176;29;20298;-69
2022/06/23 16:55:08;;;;;;;4.07;2.58;;;26.80;79.30;;;;;;6167761;29;20275;-69
2022/06/23 16:58:28;;;;;;;6.80;2.90;;;26.80;79.30;;;;;;6168185;29;20270;-69
2022/06/23 17:01:41;;;;;;;5.63;2.80;;;26.80;78.80;;;;;;6168051;29;20278;-69